BAW320X EGLL-EHAM
Flight info
| Callsign | BAW320X |
|---|---|
| Flight time | 0h 41m |
| Altitude | 29000 |
| Route | BPK Q295 BRAIN M197 REDFA |
| Aircraft | A333/H-SDE3GHIJ2J3J5M1RVWXY/LB2D1 |
Departure
| Time | 2026-05-01 14:25 |
|---|---|
| Airport | London Heathrow Airport (EGLL) |
Arrival
| Time | 2026-05-01 15:07 |
|---|---|
| Airport | Amsterdam Airport Schiphol (EHAM) |
| Time | Latitude | Longitude | Altitude | Speed | Heading |
|---|---|---|---|---|---|
| 2026-05-01 13:45 | 51.47051 | -0.47736 | 98 ft | 0 kts | 89° |
| 2026-05-01 14:12 | 51.47051 | -0.47751 | 97 ft | 3 kts | 95° |
| 2026-05-01 14:12 | 51.47052 | -0.47781 | 96 ft | 3 kts | 95° |
| 2026-05-01 14:12 | 51.47053 | -0.47788 | 96 ft | 0 kts | 95° |
| 2026-05-01 14:14 | 51.47054 | -0.47809 | 94 ft | 3 kts | 97° |
| 2026-05-01 14:15 | 51.47057 | -0.47838 | 94 ft | 3 kts | 99° |
| 2026-05-01 14:15 | 51.47060 | -0.47868 | 94 ft | 3 kts | 120° |
| 2026-05-01 14:15 | 51.47069 | -0.47888 | 94 ft | 0 kts | 158° |
| 2026-05-01 14:20 | 51.47051 | -0.47879 | 94 ft | 8 kts | 165° |
| 2026-05-01 14:20 | 51.46898 | -0.47869 | 93 ft | 14 kts | 180° |
| 2026-05-01 14:20 | 51.46800 | -0.47870 | 95 ft | 14 kts | 180° |
| 2026-05-01 14:21 | 51.46725 | -0.47869 | 93 ft | 10 kts | 179° |
| 2026-05-01 14:21 | 51.46665 | -0.47911 | 95 ft | 10 kts | 235° |
| 2026-05-01 14:21 | 51.46653 | -0.48012 | 94 ft | 9 kts | 270° |
| 2026-05-01 14:22 | 51.46653 | -0.48217 | 99 ft | 10 kts | 270° |
| 2026-05-01 14:22 | 51.46653 | -0.48329 | 100 ft | 10 kts | 269° |
| 2026-05-01 14:22 | 51.46653 | -0.48453 | 100 ft | 12 kts | 269° |
| 2026-05-01 14:22 | 51.46652 | -0.48593 | 98 ft | 14 kts | 269° |
| 2026-05-01 14:23 | 51.46639 | -0.48718 | 101 ft | 11 kts | 238° |
| 2026-05-01 14:23 | 51.46618 | -0.48746 | 96 ft | 0 kts | 212° |
| 2026-05-01 14:24 | 51.46590 | -0.48769 | 96 ft | 10 kts | 204° |
| 2026-05-01 14:24 | 51.46522 | -0.48775 | 97 ft | 10 kts | 160° |
| 2026-05-01 14:24 | 51.46483 | -0.48707 | 99 ft | 8 kts | 112° |
| 2026-05-01 14:24 | 51.46476 | -0.48571 | 99 ft | 31 kts | 91° |
| 2026-05-01 14:25 | 51.46478 | -0.47800 | 96 ft | 106 kts | 90° |
| 2026-05-01 14:25 | 51.46484 | -0.46293 | 216 ft | 157 kts | 94° |
| 2026-05-01 14:25 | 51.46518 | -0.44412 | 727 ft | 174 kts | 94° |
| 2026-05-01 14:25 | 51.46555 | -0.42514 | 1652 ft | 170 kts | 89° |
| 2026-05-01 14:26 | 51.47035 | -0.40684 | 2245 ft | 193 kts | 57° |
| 2026-05-01 14:26 | 51.49197 | -0.36862 | 2683 ft | 272 kts | 47° |
| 2026-05-01 14:26 | 51.50568 | -0.34605 | 3337 ft | 286 kts | 47° |
| 2026-05-01 14:27 | 51.51740 | -0.32149 | 4462 ft | 278 kts | 65° |
| 2026-05-01 14:27 | 51.52493 | -0.29321 | 5353 ft | 276 kts | 72° |
| 2026-05-01 14:27 | 51.53131 | -0.26387 | 5835 ft | 279 kts | 74° |
| 2026-05-01 14:28 | 51.55162 | -0.20988 | 7530 ft | 298 kts | 37° |
| 2026-05-01 14:28 | 51.56959 | -0.19385 | 8631 ft | 300 kts | 26° |
| 2026-05-01 14:28 | 51.58889 | -0.18116 | 9626 ft | 306 kts | 20° |
| 2026-05-01 14:28 | 51.60930 | -0.17104 | 10464 ft | 317 kts | 17° |
| 2026-05-01 14:29 | 51.63141 | -0.16101 | 10788 ft | 344 kts | 16° |
| 2026-05-01 14:29 | 51.65515 | -0.15032 | 11266 ft | 362 kts | 16° |
| 2026-05-01 14:30 | 51.72680 | -0.11039 | 14032 ft | 367 kts | 37° |
| 2026-05-01 14:30 | 51.74461 | -0.08196 | 14753 ft | 365 kts | 59° |
| 2026-05-01 14:30 | 51.75505 | -0.04500 | 15497 ft | 362 kts | 77° |
| 2026-05-01 14:31 | 51.76474 | 0.03452 | 16975 ft | 365 kts | 88° |
| 2026-05-01 14:31 | 51.76745 | 0.07465 | 17703 ft | 369 kts | 89° |
| 2026-05-01 14:31 | 51.76995 | 0.11606 | 18430 ft | 373 kts | 89° |
| 2026-05-01 14:31 | 51.77254 | 0.15728 | 19043 ft | 377 kts | 89° |
| 2026-05-01 14:32 | 51.77550 | 0.20047 | 19704 ft | 380 kts | 88° |
| 2026-05-01 14:32 | 51.77854 | 0.24159 | 20328 ft | 383 kts | 88° |
| 2026-05-01 14:32 | 51.78187 | 0.28432 | 20960 ft | 386 kts | 87° |
| 2026-05-01 14:32 | 51.78532 | 0.32753 | 21586 ft | 389 kts | 87° |
| 2026-05-01 14:33 | 51.78883 | 0.37096 | 22176 ft | 392 kts | 87° |
| 2026-05-01 14:33 | 51.79233 | 0.41429 | 22789 ft | 395 kts | 87° |
| 2026-05-01 14:33 | 51.79586 | 0.45829 | 23374 ft | 398 kts | 87° |
| 2026-05-01 14:33 | 51.79942 | 0.50287 | 23909 ft | 401 kts | 87° |
| 2026-05-01 14:34 | 51.80296 | 0.54764 | 24412 ft | 403 kts | 87° |
| 2026-05-01 14:34 | 51.80651 | 0.59281 | 24889 ft | 406 kts | 87° |
| 2026-05-01 14:34 | 51.81048 | 0.63821 | 25324 ft | 412 kts | 83° |
| 2026-05-01 14:34 | 51.81639 | 0.68388 | 25740 ft | 418 kts | 82° |
| 2026-05-01 14:35 | 51.82288 | 0.72949 | 26207 ft | 420 kts | 81° |
| 2026-05-01 14:35 | 51.82977 | 0.77527 | 26671 ft | 423 kts | 80° |
| 2026-05-01 14:35 | 51.83708 | 0.82151 | 27117 ft | 427 kts | 79° |
| 2026-05-01 14:35 | 51.84515 | 0.86791 | 27557 ft | 430 kts | 78° |
| 2026-05-01 14:36 | 51.85367 | 0.91438 | 27966 ft | 433 kts | 77° |
| 2026-05-01 14:36 | 51.86239 | 0.96108 | 28158 ft | 429 kts | 77° |
| 2026-05-01 14:36 | 51.87088 | 1.00624 | 28187 ft | 415 kts | 77° |
| 2026-05-01 14:37 | 51.88725 | 1.09475 | 28188 ft | 408 kts | 78° |
| 2026-05-01 14:37 | 51.90312 | 1.18261 | 28193 ft | 407 kts | 78° |
| 2026-05-01 14:38 | 51.91870 | 1.26983 | 28184 ft | 407 kts | 78° |
| 2026-05-01 14:38 | 51.93408 | 1.35624 | 28198 ft | 407 kts | 78° |
| 2026-05-01 14:39 | 51.94958 | 1.44370 | 28197 ft | 407 kts | 78° |
| 2026-05-01 14:39 | 51.96506 | 1.53134 | 28196 ft | 407 kts | 78° |
| 2026-05-01 14:40 | 51.98038 | 1.61852 | 28195 ft | 407 kts | 78° |
| 2026-05-01 14:40 | 51.99542 | 1.70696 | 28198 ft | 406 kts | 80° |
| 2026-05-01 14:41 | 52.00930 | 1.79576 | 28198 ft | 406 kts | 80° |
| 2026-05-01 14:41 | 52.02304 | 1.88465 | 28199 ft | 406 kts | 80° |
| 2026-05-01 14:42 | 52.03673 | 1.97346 | 28189 ft | 406 kts | 80° |
| 2026-05-01 14:42 | 52.05031 | 2.06203 | 28198 ft | 407 kts | 80° |
| 2026-05-01 14:43 | 52.06393 | 2.15130 | 28129 ft | 414 kts | 80° |
| 2026-05-01 14:43 | 52.07094 | 2.19768 | 27856 ft | 426 kts | 80° |
| 2026-05-01 14:43 | 52.07806 | 2.24462 | 27595 ft | 428 kts | 80° |
| 2026-05-01 14:43 | 52.08515 | 2.29144 | 27323 ft | 427 kts | 80° |
| 2026-05-01 14:44 | 52.09220 | 2.33810 | 27060 ft | 425 kts | 80° |
| 2026-05-01 14:44 | 52.10616 | 2.43105 | 26574 ft | 421 kts | 81° |
| 2026-05-01 14:44 | 52.11377 | 2.47644 | 26297 ft | 422 kts | 73° |
| 2026-05-01 14:45 | 52.12604 | 2.51944 | 26053 ft | 424 kts | 65° |
| 2026-05-01 14:45 | 52.15566 | 2.60214 | 25563 ft | 422 kts | 62° |
| 2026-05-01 14:45 | 52.17068 | 2.64312 | 25312 ft | 420 kts | 63° |
| 2026-05-01 14:46 | 52.18556 | 2.68395 | 25078 ft | 419 kts | 63° |
| 2026-05-01 14:46 | 52.21482 | 2.76475 | 24609 ft | 416 kts | 63° |
| 2026-05-01 14:46 | 52.22940 | 2.80524 | 24374 ft | 414 kts | 63° |
| 2026-05-01 14:47 | 52.24378 | 2.84522 | 24060 ft | 408 kts | 63° |
| 2026-05-01 14:47 | 52.25811 | 2.88517 | 23520 ft | 406 kts | 63° |
| 2026-05-01 14:47 | 52.27232 | 2.92488 | 22946 ft | 404 kts | 63° |
| 2026-05-01 14:48 | 52.30041 | 3.00355 | 21863 ft | 398 kts | 63° |
| 2026-05-01 14:48 | 52.31430 | 3.04253 | 21329 ft | 395 kts | 63° |
| 2026-05-01 14:48 | 52.34169 | 3.11962 | 20268 ft | 390 kts | 63° |
| 2026-05-01 14:49 | 52.36872 | 3.19589 | 19227 ft | 385 kts | 63° |
| 2026-05-01 14:49 | 52.39531 | 3.27117 | 18116 ft | 382 kts | 63° |
| 2026-05-01 14:50 | 52.41280 | 3.32079 | 17408 ft | 377 kts | 63° |
| 2026-05-01 14:50 | 52.44602 | 3.41915 | 16003 ft | 365 kts | 72° |
| 2026-05-01 14:51 | 52.45357 | 3.45836 | 15492 ft | 359 kts | 79° |
| 2026-05-01 14:51 | 52.46505 | 3.53722 | 14506 ft | 352 kts | 81° |
| 2026-05-01 14:52 | 52.47410 | 3.60175 | 13672 ft | 347 kts | 81° |
| 2026-05-01 14:52 | 52.47952 | 3.64016 | 13105 ft | 345 kts | 81° |
| 2026-05-01 14:52 | 52.49020 | 3.71573 | 12041 ft | 340 kts | 81° |
| 2026-05-01 14:53 | 52.49552 | 3.75334 | 11517 ft | 337 kts | 81° |
| 2026-05-01 14:53 | 52.50070 | 3.78992 | 11302 ft | 325 kts | 81° |
| 2026-05-01 14:53 | 52.50570 | 3.82524 | 11209 ft | 310 kts | 81° |
| 2026-05-01 14:53 | 52.51046 | 3.85889 | 10993 ft | 296 kts | 81° |
| 2026-05-01 14:54 | 52.51506 | 3.89171 | 10545 ft | 296 kts | 81° |
| 2026-05-01 14:54 | 52.51964 | 3.92467 | 10118 ft | 296 kts | 81° |
| 2026-05-01 14:54 | 52.52307 | 3.95772 | 9680 ft | 293 kts | 88° |
| 2026-05-01 14:54 | 52.52446 | 3.99088 | 9270 ft | 289 kts | 91° |
| 2026-05-01 14:55 | 52.52520 | 4.02377 | 8862 ft | 287 kts | 92° |
| 2026-05-01 14:55 | 52.52582 | 4.05624 | 8365 ft | 289 kts | 92° |
| 2026-05-01 14:55 | 52.52639 | 4.08928 | 7887 ft | 290 kts | 92° |
| 2026-05-01 14:55 | 52.52692 | 4.12246 | 7401 ft | 291 kts | 92° |
| 2026-05-01 14:56 | 52.52739 | 4.15559 | 6952 ft | 291 kts | 92° |
| 2026-05-01 14:56 | 52.52784 | 4.18846 | 6475 ft | 284 kts | 92° |
| 2026-05-01 14:56 | 52.52828 | 4.22054 | 6032 ft | 279 kts | 92° |
| 2026-05-01 14:56 | 52.52876 | 4.25237 | 5581 ft | 277 kts | 92° |
| 2026-05-01 14:57 | 52.52929 | 4.28399 | 5142 ft | 277 kts | 92° |
| 2026-05-01 14:57 | 52.53044 | 4.34586 | 4581 ft | 254 kts | 92° |
| 2026-05-01 14:57 | 52.53105 | 4.37364 | 4413 ft | 234 kts | 92° |
| 2026-05-01 14:58 | 52.53166 | 4.39983 | 4043 ft | 228 kts | 92° |
| 2026-05-01 14:58 | 52.53218 | 4.42624 | 3557 ft | 235 kts | 92° |
| 2026-05-01 14:58 | 52.53257 | 4.45275 | 3265 ft | 229 kts | 92° |
| 2026-05-01 14:58 | 52.53294 | 4.47853 | 3227 ft | 228 kts | 92° |
| 2026-05-01 14:59 | 52.53333 | 4.50473 | 3179 ft | 226 kts | 92° |
| 2026-05-01 14:59 | 52.53371 | 4.52992 | 3009 ft | 218 kts | 92° |
| 2026-05-01 14:59 | 52.53413 | 4.55374 | 2994 ft | 194 kts | 92° |
| 2026-05-01 14:59 | 52.53460 | 4.57516 | 2982 ft | 183 kts | 92° |
| 2026-05-01 15:00 | 52.53564 | 4.61448 | 2982 ft | 165 kts | 92° |
| 2026-05-01 15:00 | 52.53615 | 4.63316 | 2976 ft | 163 kts | 93° |
| 2026-05-01 15:00 | 52.53668 | 4.65169 | 2941 ft | 162 kts | 92° |
| 2026-05-01 15:01 | 52.53725 | 4.67002 | 2739 ft | 160 kts | 92° |
| 2026-05-01 15:01 | 52.53762 | 4.68790 | 2482 ft | 151 kts | 100° |
| 2026-05-01 15:01 | 52.53327 | 4.70241 | 2324 ft | 141 kts | 138° |
| 2026-05-01 15:01 | 52.52584 | 4.71128 | 2250 ft | 126 kts | 150° |
| 2026-05-01 15:02 | 52.51835 | 4.71804 | 2011 ft | 121 kts | 158° |
| 2026-05-01 15:02 | 52.51317 | 4.72132 | 1991 ft | 120 kts | 160° |
| 2026-05-01 15:02 | 52.50230 | 4.72500 | 1973 ft | 121 kts | 178° |
| 2026-05-01 15:02 | 52.49387 | 4.72444 | 1975 ft | 121 kts | 181° |
| 2026-05-01 15:03 | 52.48551 | 4.72352 | 1981 ft | 121 kts | 182° |
| 2026-05-01 15:03 | 52.47712 | 4.72253 | 1960 ft | 121 kts | 182° |
| 2026-05-01 15:03 | 52.46871 | 4.72159 | 1968 ft | 121 kts | 182° |
| 2026-05-01 15:03 | 52.46033 | 4.72080 | 1960 ft | 121 kts | 181° |
| 2026-05-01 15:04 | 52.45195 | 4.72016 | 1827 ft | 120 kts | 181° |
| 2026-05-01 15:04 | 52.44362 | 4.71945 | 1629 ft | 119 kts | 181° |
| 2026-05-01 15:04 | 52.43537 | 4.71867 | 1460 ft | 119 kts | 182° |
| 2026-05-01 15:04 | 52.42710 | 4.71787 | 1305 ft | 119 kts | 182° |
| 2026-05-01 15:05 | 52.41878 | 4.71710 | 1151 ft | 120 kts | 182° |
| 2026-05-01 15:05 | 52.41037 | 4.71634 | 991 ft | 121 kts | 183° |
| 2026-05-01 15:05 | 52.40197 | 4.71558 | 819 ft | 121 kts | 182° |
| 2026-05-01 15:05 | 52.39357 | 4.71479 | 654 ft | 121 kts | 181° |
| 2026-05-01 15:06 | 52.38521 | 4.71387 | 509 ft | 122 kts | 182° |
| 2026-05-01 15:06 | 52.37674 | 4.71309 | 356 ft | 122 kts | 181° |
| 2026-05-01 15:06 | 52.36832 | 4.71231 | 209 ft | 120 kts | 180° |
| 2026-05-01 15:06 | 52.36000 | 4.71164 | 52 ft | 119 kts | 181° |
| 2026-05-01 15:07 | 52.35214 | 4.71097 | 19 ft | 101 kts | 182° |
| 2026-05-01 15:07 | 52.34715 | 4.71054 | 21 ft | 43 kts | 183° |
| 2026-05-01 15:07 | 52.34440 | 4.71052 | 17 ft | 39 kts | 169° |
| 2026-05-01 15:07 | 52.34205 | 4.71212 | 18 ft | 29 kts | 153° |
| 2026-05-01 15:08 | 52.34079 | 4.71274 | 22 ft | 19 kts | 179° |
| 2026-05-01 15:08 | 52.33937 | 4.71264 | 16 ft | 22 kts | 183° |
| 2026-05-01 15:08 | 52.33785 | 4.71252 | 19 ft | 22 kts | 182° |
| 2026-05-01 15:08 | 52.33631 | 4.71238 | 17 ft | 19 kts | 183° |
| 2026-05-01 15:09 | 52.33496 | 4.71226 | 19 ft | 19 kts | 183° |
| 2026-05-01 15:09 | 52.33360 | 4.71213 | 17 ft | 16 kts | 184° |
| 2026-05-01 15:09 | 52.33246 | 4.71232 | 18 ft | 16 kts | 152° |
| 2026-05-01 15:09 | 52.33164 | 4.71366 | 17 ft | 18 kts | 132° |
| 2026-05-01 15:10 | 52.33071 | 4.71537 | 14 ft | 22 kts | 131° |
| 2026-05-01 15:10 | 52.32919 | 4.71819 | 5 ft | 18 kts | 131° |
| 2026-05-01 15:10 | 52.32846 | 4.71979 | 2 ft | 17 kts | 107° |
| 2026-05-01 15:11 | 52.32839 | 4.72183 | 2 ft | 19 kts | 100° |
| 2026-05-01 15:11 | 52.32684 | 4.72508 | 4 ft | 17 kts | 133° |
| 2026-05-01 15:11 | 52.32585 | 4.72656 | 1 ft | 21 kts | 139° |
| 2026-05-01 15:12 | 52.32473 | 4.72814 | 1 ft | 22 kts | 139° |
| 2026-05-01 15:12 | 52.32240 | 4.73143 | 7 ft | 21 kts | 139° |
| 2026-05-01 15:12 | 52.32131 | 4.73294 | 12 ft | 19 kts | 139° |
| 2026-05-01 15:13 | 52.32045 | 4.73834 | 22 ft | 18 kts | 94° |
| 2026-05-01 15:14 | 52.32015 | 4.74165 | 15 ft | 12 kts | 136° |
| 2026-05-01 15:14 | 52.31933 | 4.74185 | 15 ft | 13 kts | 182° |
| 2026-05-01 15:14 | 52.31725 | 4.74168 | 19 ft | 15 kts | 183° |
| 2026-05-01 15:15 | 52.31503 | 4.74147 | 19 ft | 18 kts | 184° |
| 2026-05-01 15:15 | 52.31233 | 4.74120 | 17 ft | 22 kts | 182° |
| 2026-05-01 15:16 | 52.30897 | 4.74091 | 16 ft | 25 kts | 183° |
| 2026-05-01 15:16 | 52.30585 | 4.74061 | 19 ft | 16 kts | 183° |
| 2026-05-01 15:17 | 52.30376 | 4.74205 | 18 ft | 19 kts | 132° |
| 2026-05-01 15:18 | 52.30087 | 4.74734 | 12 ft | 22 kts | 131° |
| 2026-05-01 15:18 | 52.30007 | 4.74887 | 10 ft | 13 kts | 131° |
| 2026-05-01 15:19 | 52.29796 | 4.75286 | 19 ft | 13 kts | 122° |
| 2026-05-01 15:19 | 52.29835 | 4.75578 | 20 ft | 16 kts | 58° |
| 2026-05-01 15:19 | 52.29900 | 4.75747 | 19 ft | 19 kts | 58° |
| 2026-05-01 15:20 | 52.30046 | 4.76129 | 15 ft | 12 kts | 58° |
| 2026-05-01 15:20 | 52.30093 | 4.76251 | 17 ft | 13 kts | 58° |
| 2026-05-01 15:20 | 52.30143 | 4.76382 | 17 ft | 15 kts | 58° |
| 2026-05-01 15:21 | 52.30203 | 4.76538 | 18 ft | 17 kts | 58° |
| 2026-05-01 15:21 | 52.30270 | 4.76712 | 16 ft | 20 kts | 57° |
| 2026-05-01 15:21 | 52.30333 | 4.76878 | 15 ft | 10 kts | 58° |
| 2026-05-01 15:21 | 52.30379 | 4.76995 | 14 ft | 14 kts | 52° |
| 2026-05-01 15:22 | 52.30579 | 4.76897 | 9 ft | 19 kts | 328° |
| 2026-05-01 15:22 | 52.30690 | 4.76831 | 5 ft | 16 kts | 319° |
| 2026-05-01 15:22 | 52.30734 | 4.76749 | 3 ft | 7 kts | 315° |
| 2026-05-01 15:23 | 52.30766 | 4.76726 | 3 ft | 6 kts | 346° |
| 2026-05-01 15:23 | 52.30802 | 4.76710 | 1 ft | 5 kts | 344° |
| 2026-05-01 15:23 | 52.30804 | 4.76709 | 1 ft | 0 kts | 344° |